Terminal Aerodrome Forecast
Issued by NWS Grand Forks, ND

Home | Current Version | Previous Version | Text Only | Print | Product List | Glossary Off
Versions: 1 2 3 4 5 6 7 8 9 10 11 12 13 14

000
FTUS43 KFGF 301013 AAA
TAFFAR
TAF AMD
KFAR 301013Z 3010/0106 02005KT 5SM BR BKN200
     FM301400 02005KT P6SM SCT080 BKN200
     FM010200 05006KT P6SM BKN100=

USA.gov is the U.S. government's official web portal to all federal, state and local government web resources and services.